Time;durP1;ratioP1;P1;durP2;ratioP2;P2;SDS_P1;SDS_P2;PMS_P1;PMS_P2;Temp;Humidity;BMP_temperature;BMP_pressure;BME280_temperature;BME280_humidity;BME280_pressure;Samples;Min_cycle;Max_cycle;Signal;HPM_P1;HPM_P2
2020/12/26 00:02:42;;;;;;;26.55;17.80;;;1.70;99.90;;;;;;5064921;28;20746;-75
2020/12/26 00:05:27;;;;;;;25.10;17.45;;;1.50;99.90;;;;;;5056379;28;20200;-74
2020/12/26 00:08:12;;;;;;;22.08;17.20;;;1.50;99.90;;;;;;5068049;28;20234;-75
2020/12/26 00:10:57;;;;;;;26.15;16.48;;;1.40;99.90;;;;;;5067139;28;20598;-74
2020/12/26 00:13:46;;;;;;;26.55;17.02;;;1.30;99.90;;;;;;5056375;28;20239;-75
2020/12/26 00:16:31;;;;;;;27.02;16.60;;;1.20;99.90;;;;;;5058767;28;20279;-75
2020/12/26 00:19:16;;;;;;;24.00;15.93;;;1.30;99.90;;;;;;5051802;28;20250;-76
2020/12/26 00:22:01;;;;;;;25.70;16.02;;;1.30;99.90;;;;;;5068726;28;20326;-76
2020/12/26 00:24:46;;;;;;;21.25;14.77;;;1.20;99.90;;;;;;5063261;28;20750;-75
2020/12/26 00:27:31;;;;;;;20.60;14.32;;;1.20;99.90;;;;;;5059582;28;20274;-76
2020/12/26 00:30:17;;;;;;;21.70;13.95;;;1.30;99.90;;;;;;5057705;28;20228;-76
2020/12/26 00:33:02;;;;;;;19.77;13.65;;;1.50;99.90;;;;;;5069045;28;20239;-76
2020/12/26 00:35:48;;;;;;;22.15;13.80;;;1.60;99.90;;;;;;5062154;28;20288;-76
2020/12/26 00:38:33;;;;;;;20.13;13.38;;;1.60;99.90;;;;;;5065213;28;20208;-76
2020/12/26 00:41:18;;;;;;;17.83;12.05;;;1.60;99.90;;;;;;5062411;28;20283;-76
2020/12/26 00:44:03;;;;;;;19.23;12.55;;;1.40;99.90;;;;;;5064098;28;20197;-76
2020/12/26 00:46:49;;;;;;;19.17;12.00;;;1.30;99.90;;;;;;5059783;28;20276;-75
2020/12/26 00:49:34;;;;;;;20.45;12.25;;;1.30;99.90;;;;;;5057776;28;20236;-76
2020/12/26 00:52:19;;;;;;;16.15;12.68;;;1.40;99.90;;;;;;5061402;28;20208;-76
2020/12/26 00:55:05;;;;;;;15.85;12.35;;;1.30;99.90;;;;;;5065798;28;20196;-75
2020/12/26 00:57:50;;;;;;;19.10;12.82;;;1.10;99.90;;;;;;5057755;28;20252;-75
2020/12/26 01:00:35;;;;;;;17.23;13.45;;;0.90;99.90;;;;;;5060872;28;20228;-75
2020/12/26 01:03:21;;;;;;;21.90;13.10;;;0.80;99.90;;;;;;5062927;28;20242;-75
2020/12/26 01:06:12;;;;;;;22.70;14.80;;;0.80;99.90;;;;;;5065675;28;20208;-75
2020/12/26 01:08:57;;;;;;;20.63;13.50;;;0.60;99.90;;;;;;5061455;28;20268;-75
2020/12/26 01:11:42;;;;;;;30.40;17.98;;;0.50;99.90;;;;;;5067913;28;20208;-75
2020/12/26 01:14:27;;;;;;;26.02;16.95;;;0.50;99.90;;;;;;5058691;28;20216;-75
2020/12/26 01:17:14;;;;;;;21.73;15.60;;;0.50;99.90;;;;;;5067446;28;20620;-75
2020/12/26 01:20:00;;;;;;;27.88;17.67;;;0.60;99.90;;;;;;5055817;28;20632;-75
2020/12/26 01:22:45;;;;;;;30.15;19.40;;;0.60;99.90;;;;;;5056352;28;20208;-75
2020/12/26 01:25:30;;;;;;;32.10;20.23;;;0.50;99.90;;;;;;5061232;28;20204;-76
2020/12/26 01:28:15;;;;;;;29.73;18.95;;;0.60;99.90;;;;;;5060572;28;20251;-76
2020/12/26 01:31:01;;;;;;;32.92;18.92;;;0.50;99.90;;;;;;5063223;28;20219;-75
2020/12/26 01:33:46;;;;;;;42.05;19.17;;;0.50;99.90;;;;;;5064516;28;20200;-75
2020/12/26 01:36:32;;;;;;;40.58;20.50;;;0.70;99.90;;;;;;5063514;28;20251;-75
2020/12/26 01:39:17;;;;;;;25.73;18.60;;;0.90;99.90;;;;;;5063257;28;20252;-75
2020/12/26 01:42:02;;;;;;;21.25;14.85;;;1.10;99.90;;;;;;5064589;28;20212;-75
2020/12/26 01:44:48;;;;;;;23.83;14.40;;;1.30;99.90;;;;;;5059916;28;20212;-75
2020/12/26 01:47:33;;;;;;;22.30;13.75;;;1.40;99.90;;;;;;5063199;28;20944;-76
2020/12/26 01:50:19;;;;;;;21.95;15.13;;;1.50;99.90;;;;;;5061702;28;20346;-75
2020/12/26 01:53:05;;;;;;;26.17;16.70;;;1.20;99.90;;;;;;5060489;28;20707;-76
2020/12/26 01:55:51;;;;;;;27.60;18.15;;;1.00;99.90;;;;;;5065599;28;20730;-75
2020/12/26 01:58:38;;;;;;;24.70;17.45;;;1.00;99.90;;;;;;5064836;28;20258;-75
2020/12/26 02:01:32;;;;;;;27.08;16.08;;;0.90;99.90;;;;;;5056462;28;20208;-75
2020/12/26 02:04:17;;;;;;;22.90;16.40;;;1.10;99.90;;;;;;5051134;28;20204;-75
2020/12/26 02:07:05;;;;;;;22.15;17.48;;;1.00;99.90;;;;;;5059383;28;20200;-76
2020/12/26 02:09:52;;;;;;;26.58;17.02;;;1.10;99.90;;;;;;5060908;28;20237;-75
2020/12/26 02:12:37;;;;;;;21.60;16.95;;;1.30;99.90;;;;;;5059118;28;20297;-75
2020/12/26 02:15:22;;;;;;;24.40;16.73;;;1.30;99.90;;;;;;5054532;28;20196;-75
2020/12/26 02:18:08;;;;;;;23.48;15.70;;;1.40;99.90;;;;;;5069420;28;20627;-75
2020/12/26 02:20:53;;;;;;;23.25;15.63;;;1.40;99.90;;;;;;5066909;28;20216;-76
2020/12/26 02:23:43;;;;;;;24.95;16.23;;;1.40;99.90;;;;;;5066535;28;20230;-75
2020/12/26 02:26:29;;;;;;;23.13;16.95;;;1.40;99.90;;;;;;5057310;28;20208;-75
2020/12/26 02:29:14;;;;;;;22.50;14.93;;;1.50;99.90;;;;;;5060840;28;22581;-75
2020/12/26 02:31:59;;;;;;;28.58;17.23;;;1.60;99.90;;;;;;5065738;28;20215;-75
2020/12/26 02:34:44;;;;;;;22.75;15.45;;;1.50;99.90;;;;;;5073254;28;20204;-75
2020/12/26 02:37:30;;;;;;;23.83;15.98;;;1.40;99.90;;;;;;5068641;28;20204;-75
2020/12/26 02:40:15;;;;;;;23.88;17.63;;;1.30;99.90;;;;;;5065475;28;20262;-75
2020/12/26 02:43:01;;;;;;;23.00;15.52;;;1.40;99.90;;;;;;5070281;28;20296;-75
2020/12/26 02:45:46;;;;;;;21.88;15.38;;;1.50;99.90;;;;;;5058772;28;20487;-76
2020/12/26 02:48:31;;;;;;;26.88;15.88;;;1.60;99.90;;;;;;5065579;28;20235;-75
2020/12/26 02:51:17;;;;;;;25.48;15.30;;;1.60;99.90;;;;;;5065696;28;20207;-76
2020/12/26 02:54:02;;;;;;;20.27;14.23;;;1.60;99.90;;;;;;5066285;28;20594;-75
2020/12/26 02:56:48;;;;;;;21.10;14.60;;;1.50;99.90;;;;;;5059116;28;20236;-75
2020/12/26 02:59:33;;;;;;;18.60;14.40;;;1.60;99.90;;;;;;5068791;28;20251;-75
2020/12/26 03:02:18;;;;;;;20.58;14.45;;;1.50;99.90;;;;;;5070299;28;20259;-75
2020/12/26 03:05:03;;;;;;;23.27;15.43;;;1.70;99.90;;;;;;5065476;28;20258;-76
2020/12/26 03:07:48;;;;;;;19.55;14.18;;;1.80;99.90;;;;;;5064780;28;20211;-75
2020/12/26 03:10:33;;;;;;;22.10;13.82;;;1.90;99.90;;;;;;5061774;28;20244;-75
2020/12/26 03:13:19;;;;;;;21.63;13.95;;;1.90;99.90;;;;;;5056564;28;20235;-75
2020/12/26 03:16:04;;;;;;;21.48;14.40;;;1.90;99.90;;;;;;5061518;28;20224;-75
2020/12/26 03:18:49;;;;;;;21.33;15.23;;;1.80;99.90;;;;;;5067368;28;20218;-75
2020/12/26 03:21:34;;;;;;;27.45;16.85;;;1.80;99.90;;;;;;5066259;28;20594;-75
2020/12/26 03:24:19;;;;;;;22.17;14.73;;;1.80;99.90;;;;;;5067062;28;20224;-74
2020/12/26 03:27:04;;;;;;;22.52;15.00;;;1.90;99.90;;;;;;5059670;28;20217;-75
2020/12/26 03:29:50;;;;;;;27.55;16.30;;;2.00;99.90;;;;;;5065643;28;20231;-75
2020/12/26 03:32:35;;;;;;;22.70;15.75;;;1.90;99.90;;;;;;5056307;28;20572;-75
2020/12/26 03:35:20;;;;;;;20.23;14.20;;;1.60;99.90;;;;;;5061743;28;20208;-75
2020/12/26 03:38:05;;;;;;;24.13;15.50;;;1.50;99.90;;;;;;5068880;28;20200;-75
2020/12/26 03:40:51;;;;;;;24.35;14.82;;;1.50;99.90;;;;;;5064617;28;20665;-75
2020/12/26 03:43:36;;;;;;;26.58;16.38;;;1.50;99.90;;;;;;5059390;28;20216;-75
2020/12/26 03:46:22;;;;;;;19.98;14.60;;;1.60;99.90;;;;;;5068288;28;20574;-74
2020/12/26 03:49:07;;;;;;;22.98;13.98;;;1.60;99.90;;;;;;5059664;28;20231;-75
2020/12/26 03:51:52;;;;;;;20.75;14.00;;;1.70;99.90;;;;;;5067015;28;20204;-74
2020/12/26 03:54:37;;;;;;;18.40;13.38;;;1.90;99.90;;;;;;5063699;28;20212;-75
2020/12/26 03:57:22;;;;;;;23.10;13.70;;;1.80;99.90;;;;;;5058909;28;20683;-75
2020/12/26 04:00:08;;;;;;;16.77;12.77;;;1.70;99.90;;;;;;5065025;28;20247;-75
2020/12/26 04:02:54;;;;;;;20.73;12.95;;;1.80;99.90;;;;;;5063084;28;20260;-75
2020/12/26 04:05:39;;;;;;;19.50;13.30;;;2.00;99.90;;;;;;5064543;28;20232;-75
2020/12/26 04:08:24;;;;;;;17.27;13.07;;;2.00;99.90;;;;;;5060413;28;20228;-75
2020/12/26 04:11:09;;;;;;;16.65;13.10;;;1.80;99.90;;;;;;5070653;28;20204;-75
2020/12/26 04:13:54;;;;;;;18.35;12.38;;;1.60;99.90;;;;;;5064503;28;20694;-74
2020/12/26 04:16:39;;;;;;;22.73;12.32;;;1.60;99.90;;;;;;5058404;28;20211;-75
2020/12/26 04:19:26;;;;;;;18.00;12.70;;;1.80;99.90;;;;;;5061866;28;20231;-75
2020/12/26 04:22:11;;;;;;;21.08;13.38;;;1.80;99.90;;;;;;5067301;28;20675;-75
2020/12/26 04:24:56;;;;;;;17.70;11.93;;;1.90;99.90;;;;;;5063569;28;20221;-75
2020/12/26 04:27:41;;;;;;;16.48;11.73;;;2.00;99.90;;;;;;5061141;28;20633;-75
2020/12/26 04:30:26;;;;;;;20.10;12.85;;;2.00;99.90;;;;;;5055279;28;20228;-74
2020/12/26 04:33:11;;;;;;;20.17;12.98;;;1.80;99.90;;;;;;5060623;28;20299;-75
2020/12/26 04:35:57;;;;;;;19.33;12.80;;;1.70;99.90;;;;;;5060476;28;20196;-75
2020/12/26 04:38:42;;;;;;;14.05;9.85;;;1.90;99.90;;;;;;5054731;28;20205;-75
2020/12/26 04:41:27;;;;;;;15.30;11.73;;;1.90;99.90;;;;;;5068138;28;20200;-75
2020/12/26 04:44:15;;;;;;;20.48;11.88;;;2.00;99.90;;;;;;5052540;28;20729;-75
2020/12/26 04:47:07;;;;;;;21.25;12.45;;;2.10;99.90;;;;;;5066633;28;20225;-75
2020/12/26 04:49:59;;;;;;;21.45;13.02;;;2.00;99.90;;;;;;5062401;28;20354;-74
2020/12/26 04:52:47;;;;;;;19.65;11.75;;;1.90;99.90;;;;;;5067555;28;20203;-75
2020/12/26 04:55:34;;;;;;;15.40;11.32;;;2.00;99.90;;;;;;5059250;28;20254;-75
2020/12/26 04:58:20;;;;;;;16.13;11.50;;;1.80;99.90;;;;;;5064627;28;20220;-75
2020/12/26 05:01:06;;;;;;;17.05;10.88;;;1.70;99.90;;;;;;5058029;28;20188;-75
2020/12/26 05:03:53;;;;;;;19.30;12.95;;;1.60;99.90;;;;;;5065529;28;20686;-75
2020/12/26 05:06:49;;;;;;;15.35;12.25;;;1.70;99.90;;;;;;5063905;28;20263;-74
2020/12/26 05:09:35;;;;;;;16.55;11.70;;;1.80;99.90;;;;;;5065795;28;20718;-75
2020/12/26 05:12:20;;;;;;;20.60;13.02;;;1.90;99.90;;;;;;5065924;28;20204;-74
2020/12/26 05:15:05;;;;;;;17.58;11.57;;;2.00;99.90;;;;;;5060888;28;20227;-74
2020/12/26 05:17:50;;;;;;;19.20;11.88;;;2.10;99.90;;;;;;5063403;28;20672;-75
2020/12/26 05:20:35;;;;;;;16.67;11.57;;;2.20;99.90;;;;;;5064738;28;20629;-75
2020/12/26 05:23:20;;;;;;;18.52;11.70;;;2.20;99.90;;;;;;5063067;28;20735;-75
2020/12/26 05:26:10;;;;;;;15.80;11.25;;;2.20;99.90;;;;;;5058260;28;20192;-75
2020/12/26 05:29:00;;;;;;;20.65;12.00;;;2.10;99.90;;;;;;5057787;28;20224;-74
2020/12/26 05:31:56;;;;;;;16.30;11.88;;;1.90;99.90;;;;;;5060981;28;20215;-75
2020/12/26 05:34:42;;;;;;;14.23;10.73;;;1.80;99.90;;;;;;5063432;28;20247;-75
2020/12/26 05:37:30;;;;;;;15.55;10.73;;;1.90;99.90;;;;;;5058320;28;20208;-75
2020/12/26 05:40:22;;;;;;;17.13;11.63;;;2.00;99.90;;;;;;5060622;28;20224;-75
2020/12/26 05:43:10;;;;;;;15.30;10.90;;;2.00;99.90;;;;;;5062246;28;20733;-75
2020/12/26 05:45:55;;;;;;;18.42;11.25;;;2.00;99.90;;;;;;5058838;28;20201;-75
2020/12/26 05:48:41;;;;;;;19.02;10.75;;;2.00;99.90;;;;;;5057385;28;20289;-75
2020/12/26 05:51:26;;;;;;;17.02;11.57;;;2.10;99.90;;;;;;5057563;28;20200;-75
2020/12/26 05:54:16;;;;;;;16.70;11.30;;;2.20;99.90;;;;;;5065635;28;20208;-75
2020/12/26 05:57:09;;;;;;;13.93;10.80;;;2.30;99.90;;;;;;5063671;28;20247;-75
2020/12/26 05:59:55;;;;;;;15.75;11.25;;;2.30;99.90;;;;;;5055869;28;20231;-75
2020/12/26 06:02:40;;;;;;;18.73;10.93;;;2.20;99.90;;;;;;5055973;28;20571;-75
2020/12/26 06:05:27;;;;;;;20.17;12.13;;;2.00;99.90;;;;;;5057482;28;20208;-75
2020/12/26 06:08:14;;;;;;;20.42;11.60;;;1.80;99.90;;;;;;5060380;28;20251;-75
2020/12/26 06:11:01;;;;;;;15.57;10.52;;;1.70;99.90;;;;;;5058961;28;20231;-75
2020/12/26 06:13:47;;;;;;;17.08;11.52;;;1.70;99.90;;;;;;5060586;28;20255;-75
2020/12/26 06:16:36;;;;;;;23.42;13.30;;;1.70;99.90;;;;;;5063728;28;20201;-75
2020/12/26 06:19:27;;;;;;;15.30;10.90;;;1.70;99.90;;;;;;5058666;28;20224;-74
2020/12/26 06:22:13;;;;;;;18.50;11.35;;;1.70;99.90;;;;;;5048971;28;20246;-74
2020/12/26 06:24:58;;;;;;;29.15;12.10;;;1.80;99.90;;;;;;5061384;28;20212;-75
2020/12/26 06:28:00;;;;;;;20.42;11.48;;;1.60;99.90;;;;;;5065588;28;20216;-75
2020/12/26 06:30:46;;;;;;;18.13;11.75;;;1.50;99.90;;;;;;5051722;28;20293;-74
2020/12/26 06:33:37;;;;;;;21.50;11.38;;;1.60;99.90;;;;;;5058365;28;20211;-75
2020/12/26 06:36:23;;;;;;;19.15;11.63;;;1.80;99.90;;;;;;5059828;28;20211;-75
2020/12/26 06:39:28;;;;;;;17.60;11.48;;;1.90;99.90;;;;;;5056390;28;20630;-75
2020/12/26 06:42:16;;;;;;;17.48;10.75;;;2.10;99.90;;;;;;5057329;28;20748;-75
2020/12/26 06:45:01;;;;;;;16.00;11.23;;;2.20;99.90;;;;;;5062684;28;20209;-75
2020/12/26 06:47:46;;;;;;;18.90;10.85;;;2.20;99.90;;;;;;5059407;28;20246;-75
2020/12/26 06:50:33;;;;;;;20.08;12.85;;;2.30;99.90;;;;;;5065038;28;20271;-74
2020/12/26 06:53:36;;;;;;;18.42;12.95;;;2.30;99.90;;;;;;5064066;28;20207;-75
2020/12/26 06:56:47;;;;;;;19.27;12.40;;;2.30;99.90;;;;;;5064842;28;20228;-75
2020/12/26 06:59:33;;;;;;;18.63;12.10;;;2.40;99.90;;;;;;5059336;28;20299;-75
2020/12/26 07:02:26;;;;;;;21.42;13.10;;;2.20;99.90;;;;;;5064411;28;20208;-74
2020/12/26 07:05:38;;;;;;;22.40;12.50;;;2.30;99.90;;;;;;5058350;28;20350;-75
2020/12/26 07:08:28;;;;;;;21.85;12.43;;;2.10;99.90;;;;;;5064896;28;20200;-75
2020/12/26 07:11:22;;;;;;;17.17;12.60;;;2.20;99.90;;;;;;5069027;28;20269;-74
2020/12/26 07:14:07;;;;;;;21.40;13.40;;;2.20;99.90;;;;;;5066762;28;20204;-74
2020/12/26 07:16:53;;;;;;;18.00;12.40;;;2.20;99.90;;;;;;5060208;28;20776;-75
2020/12/26 07:19:40;;;;;;;18.42;11.85;;;2.00;99.90;;;;;;5065835;28;20248;-75
2020/12/26 07:22:26;;;;;;;19.73;11.80;;;1.90;99.90;;;;;;5063885;28;20208;-75
2020/12/26 07:25:12;;;;;;;20.35;12.40;;;2.10;99.90;;;;;;5056957;28;20200;-75
2020/12/26 07:28:02;;;;;;;18.40;12.88;;;2.20;99.90;;;;;;5066525;28;20240;-75
2020/12/26 07:30:47;;;;;;;19.55;12.65;;;2.00;99.90;;;;;;5056362;28;20291;-75
2020/12/26 07:33:38;;;;;;;19.67;12.55;;;2.00;99.90;;;;;;5057362;28;20290;-75
2020/12/26 07:36:24;;;;;;;16.52;11.48;;;2.00;99.90;;;;;;5061230;28;20231;-75
2020/12/26 07:39:10;;;;;;;16.02;11.43;;;1.80;99.90;;;;;;5069781;28;20220;-75
2020/12/26 07:41:56;;;;;;;20.05;11.13;;;1.80;99.90;;;;;;5065465;28;20204;-75
2020/12/26 07:44:42;;;;;;;23.42;13.27;;;2.00;99.90;;;;;;5061130;28;20212;-75
2020/12/26 07:47:27;;;;;;;18.00;11.90;;;2.10;99.90;;;;;;5066003;28;20251;-75
2020/12/26 07:50:14;;;;;;;17.80;10.95;;;2.40;99.90;;;;;;5067155;28;20594;-75
2020/12/26 07:53:01;;;;;;;18.80;11.68;;;2.40;99.90;;;;;;5064241;28;20217;-75
2020/12/26 07:55:46;;;;;;;16.00;11.57;;;2.60;99.90;;;;;;5064560;28;20203;-75
2020/12/26 07:58:32;;;;;;;20.35;11.68;;;2.60;99.90;;;;;;5062127;28;20247;-74
2020/12/26 08:01:24;;;;;;;18.77;10.98;;;2.60;99.90;;;;;;5058813;28;20208;-75
2020/12/26 08:04:09;;;;;;;19.13;12.20;;;2.60;99.90;;;;;;5062720;28;20311;-75
2020/12/26 08:06:56;;;;;;;18.83;11.98;;;2.70;99.90;;;;;;5063042;28;20242;-75
2020/12/26 08:09:48;;;;;;;21.38;13.85;;;2.70;99.90;;;;;;5062457;28;20251;-75
2020/12/26 08:12:35;;;;;;;19.08;13.32;;;2.70;99.90;;;;;;5062284;28;20250;-74
2020/12/26 08:15:22;;;;;;;20.25;13.00;;;2.70;99.90;;;;;;5063134;28;20211;-75
2020/12/26 08:18:07;;;;;;;20.60;14.35;;;2.70;99.90;;;;;;5068421;28;20239;-75
2020/12/26 08:20:53;;;;;;;17.63;12.13;;;2.80;99.90;;;;;;5062123;28;20223;-74
2020/12/26 08:23:38;;;;;;;21.20;13.80;;;2.80;99.90;;;;;;5062252;28;20254;-75
2020/12/26 08:26:24;;;;;;;28.27;17.33;;;2.80;99.90;;;;;;5054359;28;20285;-75
2020/12/26 08:29:11;;;;;;;19.77;14.38;;;2.80;99.90;;;;;;5065454;28;20263;-75
2020/12/26 08:32:02;;;;;;;30.40;13.70;;;2.80;99.90;;;;;;5071047;28;20645;-75
2020/12/26 08:34:54;;;;;;;20.83;12.30;;;2.80;99.90;;;;;;5057522;28;20244;-75
2020/12/26 08:37:42;;;;;;;18.60;12.50;;;2.90;99.90;;;;;;5062209;28;20328;-75
2020/12/26 08:40:28;;;;;;;20.02;12.45;;;2.80;99.90;;;;;;5060684;28;20225;-75
2020/12/26 08:43:13;;;;;;;20.80;12.10;;;2.90;99.90;;;;;;5066630;28;20204;-76
2020/12/26 08:46:12;;;;;;;21.60;12.80;;;3.00;99.90;;;;;;5059237;28;20213;-75
2020/12/26 08:49:03;;;;;;;34.38;18.55;;;2.90;99.90;;;;;;5067242;28;20223;-74
2020/12/26 08:51:48;;;;;;;25.52;13.13;;;3.00;99.90;;;;;;5058223;28;20204;-78
2020/12/26 08:54:33;;;;;;;27.83;13.52;;;2.90;99.90;;;;;;5061540;28;20203;-75
2020/12/26 08:57:19;;;;;;;18.65;12.30;;;3.00;99.90;;;;;;5063931;28;20247;-75
2020/12/26 09:00:18;;;;;;;21.98;12.35;;;3.00;99.90;;;;;;5058074;28;20723;-75
2020/12/26 09:03:04;;;;;;;15.30;10.23;;;3.00;99.90;;;;;;5061317;28;20259;-75
2020/12/26 09:05:49;;;;;;;17.38;11.30;;;3.10;99.90;;;;;;5059867;28;20209;-75
2020/12/26 09:08:35;;;;;;;20.98;12.77;;;3.00;99.90;;;;;;5061670;28;20204;-75
2020/12/26 09:11:20;;;;;;;17.50;12.18;;;3.00;99.90;;;;;;5066563;28;20590;-75
2020/12/26 09:14:15;;;;;;;20.80;11.98;;;3.10;99.90;;;;;;5062519;28;20220;-75
2020/12/26 09:17:01;;;;;;;18.90;11.35;;;3.10;99.90;;;;;;5060096;28;20200;-75
2020/12/26 09:19:48;;;;;;;18.15;11.50;;;3.00;99.90;;;;;;5062431;28;20274;-74
2020/12/26 09:22:33;;;;;;;13.73;9.35;;;3.10;99.90;;;;;;5062449;28;20232;-75
2020/12/26 09:25:24;;;;;;;19.40;11.88;;;3.20;99.90;;;;;;5059189;28;20227;-75
2020/12/26 09:28:10;;;;;;;19.48;9.85;;;3.10;99.90;;;;;;5059417;28;20248;-75
2020/12/26 09:31:09;;;;;;;16.98;11.80;;;3.30;99.90;;;;;;5067924;28;20623;-75
2020/12/26 09:33:55;;;;;;;17.45;10.98;;;3.30;99.90;;;;;;5065972;28;20751;-75
2020/12/26 09:36:42;;;;;;;22.48;12.13;;;3.40;99.90;;;;;;5054725;28;20229;-75
2020/12/26 09:39:27;;;;;;;19.55;11.15;;;3.40;99.90;;;;;;5068921;28;20219;-75
2020/12/26 09:42:12;;;;;;;19.25;10.73;;;3.40;99.90;;;;;;5063059;28;20204;-75
2020/12/26 09:44:57;;;;;;;16.25;11.20;;;3.50;99.90;;;;;;5056095;28;20211;-75
2020/12/26 09:47:43;;;;;;;18.67;10.75;;;3.50;99.90;;;;;;5064952;28;20208;-75
2020/12/26 09:50:28;;;;;;;15.60;10.80;;;3.50;99.90;;;;;;5066669;28;20281;-75
2020/12/26 09:53:14;;;;;;;16.83;10.60;;;3.50;99.90;;;;;;5062783;28;20219;-75
2020/12/26 09:55:59;;;;;;;19.15;11.07;;;3.60;99.90;;;;;;5064388;28;20203;-75
2020/12/26 09:58:45;;;;;;;15.50;9.95;;;3.60;99.90;;;;;;5057573;28;20254;-75
2020/12/26 10:01:30;;;;;;;22.35;10.02;;;3.60;99.90;;;;;;5057317;28;20690;-75
2020/12/26 10:04:14;;;;;;;14.48;10.05;;;3.70;99.90;;;;;;5062127;28;20293;-74
2020/12/26 10:07:00;;;;;;;24.42;11.35;;;3.50;99.90;;;;;;5069444;28;20690;-75
2020/12/26 10:09:46;;;;;;;20.92;10.27;;;3.60;99.90;;;;;;5061269;28;20259;-75
2020/12/26 10:12:31;;;;;;;16.95;9.27;;;3.70;99.90;;;;;;5066405;28;20686;-75
2020/12/26 10:15:18;;;;;;;20.38;10.25;;;3.70;99.90;;;;;;5057802;28;20235;-76
2020/12/26 10:18:03;;;;;;;19.50;10.80;;;3.70;99.90;;;;;;5061638;28;20207;-76
2020/12/26 10:20:48;;;;;;;19.58;9.90;;;3.80;99.90;;;;;;5055569;28;20258;-75
2020/12/26 10:23:33;;;;;;;13.63;8.95;;;3.90;99.90;;;;;;5057529;28;20200;-76
2020/12/26 10:26:19;;;;;;;17.30;9.57;;;4.00;99.90;;;;;;5058613;28;20276;-76
2020/12/26 10:29:04;;;;;;;23.08;11.60;;;3.90;99.90;;;;;;5065192;28;20250;-75
2020/12/26 10:31:49;;;;;;;22.05;9.75;;;3.90;99.90;;;;;;5064195;28;20609;-76
2020/12/26 10:34:34;;;;;;;20.23;11.00;;;4.00;99.90;;;;;;5055095;28;20789;-76
2020/12/26 10:37:19;;;;;;;23.70;11.02;;;4.10;99.90;;;;;;5061467;28;20254;-76
2020/12/26 10:40:05;;;;;;;14.10;9.90;;;4.20;99.90;;;;;;5066726;28;20220;-75
2020/12/26 10:42:51;;;;;;;21.88;10.73;;;4.60;99.90;;;;;;5067283;28;20212;-75
2020/12/26 10:45:36;;;;;;;14.88;9.70;;;5.00;99.90;;;;;;5070589;28;20215;-76
2020/12/26 10:48:21;;;;;;;14.50;8.95;;;5.70;99.90;;;;;;5065138;28;20204;-76
2020/12/26 10:51:06;;;;;;;15.40;8.38;;;6.50;99.90;;;;;;5069585;28;20223;-76
2020/12/26 10:53:51;;;;;;;15.90;9.90;;;7.10;99.90;;;;;;5061362;28;20221;-75
2020/12/26 10:56:36;;;;;;;13.27;8.63;;;7.10;99.90;;;;;;5064344;28;20223;-75
2020/12/26 10:59:22;;;;;;;8.80;6.70;;;7.60;99.90;;;;;;5063655;28;20817;-76
2020/12/26 11:02:07;;;;;;;12.40;8.00;;;7.70;99.90;;;;;;5070955;28;20683;-76
2020/12/26 11:04:53;;;;;;;14.00;8.15;;;7.10;99.90;;;;;;5057294;28;20216;-77
2020/12/26 11:07:38;;;;;;;15.27;8.40;;;6.60;99.90;;;;;;5061821;28;20283;-76
2020/12/26 11:10:23;;;;;;;11.40;7.97;;;6.50;99.90;;;;;;5064495;28;20773;-75
2020/12/26 11:13:08;;;;;;;14.75;7.45;;;6.30;99.90;;;;;;5064763;28;20656;-73
2020/12/26 11:15:54;;;;;;;30.20;8.10;;;5.50;99.90;;;;;;5067970;28;20289;-73
2020/12/26 11:18:39;;;;;;;17.35;8.50;;;5.20;99.90;;;;;;5061713;28;20200;-73
2020/12/26 11:21:24;;;;;;;12.80;7.07;;;5.00;99.90;;;;;;5071331;28;20328;-74
2020/12/26 11:24:09;;;;;;;12.77;8.60;;;4.80;99.90;;;;;;5065375;28;20196;-74
2020/12/26 11:26:54;;;;;;;15.48;8.30;;;4.70;99.90;;;;;;5065923;28;20326;-75
2020/12/26 11:29:40;;;;;;;17.10;8.45;;;4.70;99.90;;;;;;5064379;28;20220;-73
2020/12/26 11:32:26;;;;;;;15.48;9.65;;;4.80;99.90;;;;;;5066438;28;20199;-73
2020/12/26 11:35:11;;;;;;;16.05;9.20;;;4.90;99.90;;;;;;5063572;28;20262;-73
2020/12/26 11:37:56;;;;;;;16.25;10.68;;;4.90;99.90;;;;;;5059259;28;20208;-76
2020/12/26 11:40:41;;;;;;;14.30;8.45;;;4.90;99.90;;;;;;5068291;28;20297;-76
2020/12/26 11:43:26;;;;;;;13.77;8.50;;;4.90;99.90;;;;;;5058797;28;20200;-76
2020/12/26 11:46:12;;;;;;;16.55;9.65;;;5.00;99.90;;;;;;5058719;28;20265;-75
2020/12/26 11:48:58;;;;;;;12.82;8.57;;;5.00;99.90;;;;;;5064116;28;20264;-76
2020/12/26 11:51:43;;;;;;;20.00;9.73;;;5.10;99.90;;;;;;5068405;28;20604;-76
2020/12/26 11:54:28;;;;;;;17.92;9.20;;;4.90;99.90;;;;;;5068433;28;20205;-76
2020/12/26 11:57:13;;;;;;;17.50;8.80;;;4.90;99.90;;;;;;5071415;28;20695;-75
2020/12/26 11:59:59;;;;;;;13.98;8.82;;;4.80;99.90;;;;;;5058850;28;20220;-75
2020/12/26 12:02:44;;;;;;;14.85;9.60;;;4.70;99.90;;;;;;5061632;28;20253;-75
2020/12/26 12:05:30;;;;;;;20.67;9.93;;;4.70;99.90;;;;;;5055384;28;20204;-72
2020/12/26 12:08:15;;;;;;;15.48;10.82;;;4.50;99.90;;;;;;5056467;28;20204;-73
2020/12/26 12:11:00;;;;;;;17.42;10.55;;;4.50;99.90;;;;;;5058263;28;20223;-75
2020/12/26 12:13:45;;;;;;;17.17;11.23;;;4.60;99.90;;;;;;5055340;28;20905;-74
2020/12/26 12:16:30;;;;;;;18.35;10.38;;;4.50;99.90;;;;;;5053539;28;20236;-73
2020/12/26 12:19:15;;;;;;;21.23;12.38;;;4.40;99.90;;;;;;5056607;28;20698;-74
2020/12/26 12:22:01;;;;;;;18.70;11.70;;;4.30;99.90;;;;;;5066990;28;20196;-75
2020/12/26 12:24:46;;;;;;;18.27;11.55;;;4.40;99.90;;;;;;5056131;28;20297;-76
2020/12/26 12:27:31;;;;;;;20.60;12.35;;;4.50;99.90;;;;;;5069596;28;20247;-74
2020/12/26 12:30:17;;;;;;;21.55;13.75;;;4.40;99.90;;;;;;5068854;28;20309;-75
2020/12/26 12:33:02;;;;;;;20.13;12.82;;;4.40;99.90;;;;;;5056668;28;20254;-76
2020/12/26 12:35:47;;;;;;;19.63;11.68;;;4.50;99.90;;;;;;5070016;28;20204;-76
2020/12/26 12:38:33;;;;;;;18.50;11.75;;;4.60;99.90;;;;;;5070108;28;20212;-73
2020/12/26 12:41:18;;;;;;;20.33;11.68;;;4.60;99.90;;;;;;5057747;28;20224;-76
2020/12/26 12:44:03;;;;;;;18.65;12.60;;;4.60;99.90;;;;;;5065091;28;20232;-75
2020/12/26 12:46:48;;;;;;;16.38;11.43;;;4.70;99.90;;;;;;5052322;28;20215;-76
2020/12/26 12:49:33;;;;;;;16.98;12.15;;;4.80;99.90;;;;;;5056650;28;20225;-76
2020/12/26 12:52:19;;;;;;;17.17;10.68;;;4.70;99.90;;;;;;5050001;28;20949;-75
2020/12/26 12:55:05;;;;;;;15.38;10.55;;;4.70;99.90;;;;;;5064658;28;20224;-75
2020/12/26 12:57:50;;;;;;;16.77;10.52;;;4.70;99.90;;;;;;5069283;28;20240;-75
2020/12/26 13:00:35;;;;;;;13.70;9.48;;;4.60;99.90;;;;;;5070863;28;20301;-75
2020/12/26 13:03:20;;;;;;;19.55;10.00;;;4.50;99.90;;;;;;5067286;28;20288;-76
2020/12/26 13:06:05;;;;;;;16.35;9.80;;;4.50;99.90;;;;;;5069184;28;20810;-76
2020/12/26 13:08:50;;;;;;;18.35;9.32;;;4.60;99.90;;;;;;5049212;28;20200;-76
2020/12/26 13:11:36;;;;;;;17.23;10.27;;;4.70;99.90;;;;;;5058536;28;20262;-76
2020/12/26 13:14:22;;;;;;;20.38;11.00;;;4.60;99.90;;;;;;5070550;28;20251;-76
2020/12/26 13:17:07;;;;;;;18.00;10.25;;;4.60;99.90;;;;;;5067705;28;20231;-75
2020/12/26 13:19:52;;;;;;;16.70;9.98;;;4.70;99.90;;;;;;5067785;28;20251;-76
2020/12/26 13:22:37;;;;;;;18.65;10.93;;;4.70;99.90;;;;;;5066750;28;21048;-75
2020/12/26 13:25:22;;;;;;;20.38;10.52;;;4.60;99.90;;;;;;5065453;28;20204;-75
2020/12/26 13:28:08;;;;;;;14.82;9.35;;;4.40;99.90;;;;;;5071563;28;20638;-76
2020/12/26 13:30:53;;;;;;;18.35;8.60;;;4.20;99.90;;;;;;5051257;28;20237;-76
2020/12/26 13:33:38;;;;;;;14.30;9.55;;;4.20;99.90;;;;;;5049033;28;20898;-76
2020/12/26 13:36:23;;;;;;;17.42;8.52;;;4.20;99.90;;;;;;5068750;28;20318;-76
2020/12/26 13:39:09;;;;;;;13.88;9.55;;;4.20;99.90;;;;;;5069934;28;20219;-76
2020/12/26 13:41:54;;;;;;;15.63;9.30;;;4.30;99.90;;;;;;5071749;28;20577;-76
2020/12/26 13:44:39;;;;;;;13.02;9.80;;;4.30;99.90;;;;;;5064335;28;20243;-75
2020/12/26 13:47:24;;;;;;;19.73;9.55;;;4.20;99.90;;;;;;5063724;28;20490;-75
2020/12/26 13:50:10;;;;;;;11.05;8.73;;;4.20;99.90;;;;;;5047904;28;20220;-76
2020/12/26 13:52:55;;;;;;;14.38;9.52;;;4.30;99.90;;;;;;5066850;28;20228;-75
2020/12/26 13:55:40;;;;;;;14.55;9.52;;;4.20;99.90;;;;;;5071399;28;20245;-75
2020/12/26 13:58:26;;;;;;;14.48;9.95;;;4.20;99.90;;;;;;5049015;28;20213;-76
2020/12/26 14:01:11;;;;;;;15.27;10.55;;;4.10;99.90;;;;;;5058499;28;20211;-75
2020/12/26 14:03:57;;;;;;;16.55;10.85;;;4.10;99.90;;;;;;5066271;28;20200;-76
2020/12/26 14:06:42;;;;;;;19.58;9.95;;;4.10;99.90;;;;;;5064370;28;20197;-77
2020/12/26 14:09:27;;;;;;;18.15;9.07;;;4.20;99.90;;;;;;5059062;28;20227;-75
2020/12/26 14:12:12;;;;;;;15.85;10.75;;;4.30;99.90;;;;;;5062157;28;20207;-75
2020/12/26 14:14:57;;;;;;;17.52;11.05;;;4.40;99.90;;;;;;5057516;28;20239;-75
2020/12/26 14:17:43;;;;;;;13.82;9.93;;;4.30;99.90;;;;;;5067591;28;20204;-76